Terminal Aerodrome Forecast
Issued by NWS

Home | Current Version | Previous Version | Text Only | Print | Product List | Glossary Off
Versions: 1 2 3 4 5 6 7 8 9 10 11 12 13 14 15 16 17

000
FTUS43 KMPX 292300
TAFAXN
TAF
KAXN 292333Z 3000/3024 17005KT P6SM SCT018 BKN150
     FM300400 18005KT P6SM SCT050 OVC080
     FM300800 20004KT P6SM VCSH OVC050
     FM301300 35012G18KT P6SM OVC020
     FM301900 35018G25KT P6SM BKN035=

USA.gov is the U.S. government's official web portal to all federal, state and local government web resources and services.